sensor_id;sensor_type;location;lat;lon;timestamp;pressure;altitude;pressure_sealevel;temperature;humidity
19108;BME280;9686;48.832;9.126;2023-02-10T00:00:50;100019.81;;;0.80;100.00
19108;BME280;9686;48.832;9.126;2023-02-10T00:03:15;100019.16;;;0.56;100.00
19108;BME280;9686;48.832;9.126;2023-02-10T00:05:41;100021.84;;;0.57;100.00
19108;BME280;9686;48.832;9.126;2023-02-10T00:08:06;100021.75;;;0.43;100.00
19108;BME280;9686;48.832;9.126;2023-02-10T00:10:31;100018.75;;;0.50;100.00
19108;BME280;9686;48.832;9.126;2023-02-10T00:12:57;100022.31;;;0.52;100.00
19108;BME280;9686;48.832;9.126;2023-02-10T00:15:22;100019.81;;;0.67;100.00
19108;BME280;9686;48.832;9.126;2023-02-10T00:17:47;100020.34;;;0.61;100.00
19108;BME280;9686;48.832;9.126;2023-02-10T00:20:12;100018.19;;;0.54;100.00
19108;BME280;9686;48.832;9.126;2023-02-10T00:22:38;100016.28;;;0.65;100.00
19108;BME280;9686;48.832;9.126;2023-02-10T00:25:03;100015.81;;;0.57;99.18
19108;BME280;9686;48.832;9.126;2023-02-10T00:27:29;100025.97;;;0.42;97.77
19108;BME280;9686;48.832;9.126;2023-02-10T00:29:54;100023.63;;;0.32;100.00
19108;BME280;9686;48.832;9.126;2023-02-10T00:32:19;100027.69;;;0.28;100.00
19108;BME280;9686;48.832;9.126;2023-02-10T00:34:45;100020.75;;;0.41;100.00
19108;BME280;9686;48.832;9.126;2023-02-10T00:37:11;100019.41;;;0.33;100.00
19108;BME280;9686;48.832;9.126;2023-02-10T00:39:36;100022.22;;;0.50;98.99
19108;BME280;9686;48.832;9.126;2023-02-10T00:42:01;100025.00;;;0.40;98.74
19108;BME280;9686;48.832;9.126;2023-02-10T00:44:27;100031.31;;;0.45;98.95
19108;BME280;9686;48.832;9.126;2023-02-10T00:46:52;100037.94;;;0.28;99.86
19108;BME280;9686;48.832;9.126;2023-02-10T00:49:17;100042.66;;;0.22;100.00
19108;BME280;9686;48.832;9.126;2023-02-10T00:51:43;100047.78;;;0.22;100.00
19108;BME280;9686;48.832;9.126;2023-02-10T00:54:11;100048.50;;;0.07;100.00
19108;BME280;9686;48.832;9.126;2023-02-10T00:56:37;100047.50;;;0.05;100.00
19108;BME280;9686;48.832;9.126;2023-02-10T00:59:02;100043.75;;;0.13;100.00
19108;BME280;9686;48.832;9.126;2023-02-10T01:01:27;100035.97;;;0.11;100.00
19108;BME280;9686;48.832;9.126;2023-02-10T01:03:53;100035.47;;;0.17;100.00
19108;BME280;9686;48.832;9.126;2023-02-10T01:06:18;100040.03;;;0.08;100.00
19108;BME280;9686;48.832;9.126;2023-02-10T01:08:44;100036.66;;;0.22;100.00
19108;BME280;9686;48.832;9.126;2023-02-10T01:11:11;100036.38;;;0.04;100.00
19108;BME280;9686;48.832;9.126;2023-02-10T01:13:37;100036.84;;;0.12;100.00
19108;BME280;9686;48.832;9.126;2023-02-10T01:16:21;100043.16;;;0.17;100.00
19108;BME280;9686;48.832;9.126;2023-02-10T01:18:47;100039.22;;;0.09;100.00
19108;BME280;9686;48.832;9.126;2023-02-10T01:21:15;100041.69;;;0.07;100.00
19108;BME280;9686;48.832;9.126;2023-02-10T01:23:41;100044.34;;;0.09;100.00
19108;BME280;9686;48.832;9.126;2023-02-10T01:26:07;100058.84;;;0.08;100.00
19108;BME280;9686;48.832;9.126;2023-02-10T01:28:33;100058.66;;;0.05;100.00
19108;BME280;9686;48.832;9.126;2023-02-10T01:30:58;100061.03;;;0.02;100.00
19108;BME280;9686;48.832;9.126;2023-02-10T01:33:23;100055.06;;;-0.10;100.00
19108;BME280;9686;48.832;9.126;2023-02-10T01:35:49;100046.22;;;-0.15;100.00
19108;BME280;9686;48.832;9.126;2023-02-10T01:38:14;100046.59;;;-0.22;100.00
19108;BME280;9686;48.832;9.126;2023-02-10T01:40:39;100047.88;;;-0.16;100.00
19108;BME280;9686;48.832;9.126;2023-02-10T01:43:14;100040.50;;;-0.24;100.00
19108;BME280;9686;48.832;9.126;2023-02-10T01:45:40;100049.91;;;-0.37;100.00
19108;BME280;9686;48.832;9.126;2023-02-10T01:48:07;100045.31;;;-0.54;100.00
19108;BME280;9686;48.832;9.126;2023-02-10T01:50:38;100043.72;;;-0.65;100.00
19108;BME280;9686;48.832;9.126;2023-02-10T01:53:06;100054.06;;;-0.64;100.00
19108;BME280;9686;48.832;9.126;2023-02-10T01:55:33;100056.31;;;-0.68;100.00
19108;BME280;9686;48.832;9.126;2023-02-10T01:58:01;100051.88;;;-0.71;100.00
19108;BME280;9686;48.832;9.126;2023-02-10T02:00:28;100064.91;;;-0.68;100.00
19108;BME280;9686;48.832;9.126;2023-02-10T02:02:54;100063.72;;;-0.35;100.00
19108;BME280;9686;48.832;9.126;2023-02-10T02:05:35;100061.16;;;-0.59;100.00
19108;BME280;9686;48.832;9.126;2023-02-10T02:08:14;100066.16;;;-0.49;100.00
19108;BME280;9686;48.832;9.126;2023-02-10T02:22:04;100087.44;;;-0.87;100.00
19108;BME280;9686;48.832;9.126;2023-02-10T02:25:02;100090.09;;;-0.74;100.00
19108;BME280;9686;48.832;9.126;2023-02-10T02:30:34;100084.75;;;-0.77;100.00
19108;BME280;9686;48.832;9.126;2023-02-10T02:35:32;100090.00;;;-0.87;100.00
19108;BME280;9686;48.832;9.126;2023-02-10T02:38:03;100087.97;;;-0.79;100.00
19108;BME280;9686;48.832;9.126;2023-02-10T02:40:29;100094.66;;;-0.56;100.00
19108;BME280;9686;48.832;9.126;2023-02-10T02:42:54;100085.50;;;-0.53;100.00
19108;BME280;9686;48.832;9.126;2023-02-10T02:45:44;100083.81;;;-0.41;100.00
19108;BME280;9686;48.832;9.126;2023-02-10T02:51:20;100082.97;;;-0.53;100.00
19108;BME280;9686;48.832;9.126;2023-02-10T02:54:00;100085.47;;;-0.66;100.00
19108;BME280;9686;48.832;9.126;2023-02-10T02:56:36;100087.75;;;-0.71;100.00
19108;BME280;9686;48.832;9.126;2023-02-10T02:59:29;100097.31;;;-0.80;100.00
19108;BME280;9686;48.832;9.126;2023-02-10T03:02:00;100094.81;;;-0.91;100.00
19108;BME280;9686;48.832;9.126;2023-02-10T03:04:29;100093.63;;;-0.97;100.00
19108;BME280;9686;48.832;9.126;2023-02-10T03:06:56;100093.50;;;-0.98;100.00
19108;BME280;9686;48.832;9.126;2023-02-10T03:09:21;100096.69;;;-0.89;100.00
19108;BME280;9686;48.832;9.126;2023-02-10T03:11:47;100092.72;;;-0.97;100.00
19108;BME280;9686;48.832;9.126;2023-02-10T03:14:12;100097.44;;;-1.03;100.00
19108;BME280;9686;48.832;9.126;2023-02-10T03:16:38;100086.34;;;-0.90;100.00
19108;BME280;9686;48.832;9.126;2023-02-10T03:19:03;100091.63;;;-1.01;100.00
19108;BME280;9686;48.832;9.126;2023-02-10T03:21:28;100086.16;;;-1.05;100.00
19108;BME280;9686;48.832;9.126;2023-02-10T03:23:54;100099.41;;;-0.99;100.00
19108;BME280;9686;48.832;9.126;2023-02-10T03:26:19;100096.34;;;-1.18;100.00
19108;BME280;9686;48.832;9.126;2023-02-10T03:28:44;100092.75;;;-1.09;100.00
19108;BME280;9686;48.832;9.126;2023-02-10T03:31:10;100100.09;;;-1.02;100.00
19108;BME280;9686;48.832;9.126;2023-02-10T03:33:35;100109.88;;;-1.08;100.00
19108;BME280;9686;48.832;9.126;2023-02-10T03:36:01;100102.88;;;-1.10;100.00
19108;BME280;9686;48.832;9.126;2023-02-10T03:38:27;100109.13;;;-1.18;100.00
19108;BME280;9686;48.832;9.126;2023-02-10T03:40:54;100104.22;;;-1.15;100.00
19108;BME280;9686;48.832;9.126;2023-02-10T03:43:20;100111.81;;;-1.17;100.00
19108;BME280;9686;48.832;9.126;2023-02-10T03:45:46;100115.91;;;-1.19;100.00
19108;BME280;9686;48.832;9.126;2023-02-10T03:48:12;100117.06;;;-1.27;100.00
19108;BME280;9686;48.832;9.126;2023-02-10T03:50:38;100118.47;;;-1.19;100.00
19108;BME280;9686;48.832;9.126;2023-02-10T03:53:04;100119.16;;;-1.21;100.00
19108;BME280;9686;48.832;9.126;2023-02-10T03:55:30;100121.50;;;-1.36;100.00
19108;BME280;9686;48.832;9.126;2023-02-10T03:57:55;100120.72;;;-1.35;100.00
19108;BME280;9686;48.832;9.126;2023-02-10T04:00:21;100123.16;;;-1.37;100.00
19108;BME280;9686;48.832;9.126;2023-02-10T04:02:46;100125.25;;;-1.31;100.00
19108;BME280;9686;48.832;9.126;2023-02-10T04:05:12;100126.50;;;-1.38;100.00
19108;BME280;9686;48.832;9.126;2023-02-10T04:07:37;100119.50;;;-1.29;100.00
19108;BME280;9686;48.832;9.126;2023-02-10T04:10:03;100117.38;;;-1.34;100.00
19108;BME280;9686;48.832;9.126;2023-02-10T04:12:29;100119.59;;;-1.39;100.00
19108;BME280;9686;48.832;9.126;2023-02-10T04:14:55;100123.94;;;-1.38;100.00
19108;BME280;9686;48.832;9.126;2023-02-10T04:17:20;100123.41;;;-1.45;100.00
19108;BME280;9686;48.832;9.126;2023-02-10T04:19:45;100120.97;;;-1.44;100.00
19108;BME280;9686;48.832;9.126;2023-02-10T04:22:11;100124.28;;;-1.45;100.00
19108;BME280;9686;48.832;9.126;2023-02-10T04:24:36;100112.84;;;-1.50;100.00
19108;BME280;9686;48.832;9.126;2023-02-10T04:27:01;100117.06;;;-1.39;100.00
19108;BME280;9686;48.832;9.126;2023-02-10T04:29:27;100122.41;;;-1.47;100.00
19108;BME280;9686;48.832;9.126;2023-02-10T04:31:52;100129.09;;;-1.49;100.00
19108;BME280;9686;48.832;9.126;2023-02-10T04:34:17;100128.19;;;-1.50;100.00
19108;BME280;9686;48.832;9.126;2023-02-10T04:36:42;100128.53;;;-1.45;100.00
19108;BME280;9686;48.832;9.126;2023-02-10T04:39:08;100129.53;;;-1.43;100.00
19108;BME280;9686;48.832;9.126;2023-02-10T04:41:33;100136.75;;;-1.61;100.00
19108;BME280;9686;48.832;9.126;2023-02-10T04:43:58;100132.63;;;-1.59;100.00
19108;BME280;9686;48.832;9.126;2023-02-10T04:46:24;100132.09;;;-1.55;100.00
19108;BME280;9686;48.832;9.126;2023-02-10T04:48:49;100132.63;;;-1.59;100.00
19108;BME280;9686;48.832;9.126;2023-02-10T04:51:14;100130.44;;;-1.54;100.00
19108;BME280;9686;48.832;9.126;2023-02-10T04:53:40;100137.19;;;-1.67;100.00
19108;BME280;9686;48.832;9.126;2023-02-10T04:56:08;100136.72;;;-1.14;100.00
19108;BME280;9686;48.832;9.126;2023-02-10T04:58:33;100135.56;;;-1.06;100.00
19108;BME280;9686;48.832;9.126;2023-02-10T05:00:59;100145.50;;;-1.11;100.00
19108;BME280;9686;48.832;9.126;2023-02-10T05:03:24;100136.81;;;-1.13;100.00
19108;BME280;9686;48.832;9.126;2023-02-10T05:05:50;100142.28;;;-1.20;100.00
19108;BME280;9686;48.832;9.126;2023-02-10T05:08:18;100139.59;;;-1.10;100.00
19108;BME280;9686;48.832;9.126;2023-02-10T05:10:50;100151.38;;;-1.12;100.00
19108;BME280;9686;48.832;9.126;2023-02-10T05:13:16;100144.19;;;-1.29;100.00
19108;BME280;9686;48.832;9.126;2023-02-10T05:15:41;100149.31;;;-1.29;100.00
19108;BME280;9686;48.832;9.126;2023-02-10T05:18:07;100154.63;;;-1.38;100.00
19108;BME280;9686;48.832;9.126;2023-02-10T05:20:32;100154.75;;;-1.36;100.00
19108;BME280;9686;48.832;9.126;2023-02-10T05:22:57;100155.97;;;-1.31;100.00
19108;BME280;9686;48.832;9.126;2023-02-10T05:25:23;100153.84;;;-1.13;100.00
19108;BME280;9686;48.832;9.126;2023-02-10T05:27:48;100158.31;;;-1.34;100.00
19108;BME280;9686;48.832;9.126;2023-02-10T05:30:13;100161.44;;;-1.38;100.00
19108;BME280;9686;48.832;9.126;2023-02-10T05:32:40;100156.19;;;-1.40;100.00
19108;BME280;9686;48.832;9.126;2023-02-10T05:35:06;100154.28;;;-1.31;100.00
19108;BME280;9686;48.832;9.126;2023-02-10T05:37:31;100157.41;;;-1.35;100.00
19108;BME280;9686;48.832;9.126;2023-02-10T05:39:57;100164.41;;;-1.32;100.00
19108;BME280;9686;48.832;9.126;2023-02-10T05:42:22;100164.66;;;-1.41;100.00
19108;BME280;9686;48.832;9.126;2023-02-10T05:44:48;100164.53;;;-1.42;100.00
19108;BME280;9686;48.832;9.126;2023-02-10T05:47:13;100165.09;;;-1.35;100.00
19108;BME280;9686;48.832;9.126;2023-02-10T05:49:38;100178.56;;;-1.49;100.00
19108;BME280;9686;48.832;9.126;2023-02-10T05:52:04;100173.78;;;-1.56;100.00
19108;BME280;9686;48.832;9.126;2023-02-10T05:54:29;100170.34;;;-1.45;100.00
19108;BME280;9686;48.832;9.126;2023-02-10T05:56:55;100170.75;;;-1.62;100.00
19108;BME280;9686;48.832;9.126;2023-02-10T05:59:20;100167.91;;;-1.55;100.00
19108;BME280;9686;48.832;9.126;2023-02-10T06:01:46;100181.09;;;-1.61;100.00
19108;BME280;9686;48.832;9.126;2023-02-10T06:04:11;100177.44;;;-1.52;100.00
19108;BME280;9686;48.832;9.126;2023-02-10T06:06:36;100183.66;;;-1.61;100.00
19108;BME280;9686;48.832;9.126;2023-02-10T06:09:02;100187.31;;;-1.69;100.00
19108;BME280;9686;48.832;9.126;2023-02-10T06:11:29;100193.53;;;-1.65;100.00
19108;BME280;9686;48.832;9.126;2023-02-10T06:13:54;100197.78;;;-1.66;100.00
19108;BME280;9686;48.832;9.126;2023-02-10T06:16:19;100213.88;;;-1.67;100.00
19108;BME280;9686;48.832;9.126;2023-02-10T06:18:45;100209.72;;;-1.88;100.00
19108;BME280;9686;48.832;9.126;2023-02-10T06:21:12;100213.84;;;-1.90;100.00
19108;BME280;9686;48.832;9.126;2023-02-10T06:23:38;100214.66;;;-1.79;100.00
19108;BME280;9686;48.832;9.126;2023-02-10T06:26:03;100212.44;;;-1.75;100.00
19108;BME280;9686;48.832;9.126;2023-02-10T06:28:29;100221.00;;;-1.74;100.00
19108;BME280;9686;48.832;9.126;2023-02-10T06:30:54;100232.88;;;-1.75;100.00
19108;BME280;9686;48.832;9.126;2023-02-10T06:33:20;100230.28;;;-1.87;100.00
19108;BME280;9686;48.832;9.126;2023-02-10T06:35:46;100232.78;;;-1.76;100.00
19108;BME280;9686;48.832;9.126;2023-02-10T06:38:12;100225.28;;;-1.85;100.00
19108;BME280;9686;48.832;9.126;2023-02-10T06:40:37;100224.75;;;-1.81;100.00
19108;BME280;9686;48.832;9.126;2023-02-10T06:43:03;100232.88;;;-1.75;100.00
19108;BME280;9686;48.832;9.126;2023-02-10T06:45:29;100239.97;;;-1.82;100.00
19108;BME280;9686;48.832;9.126;2023-02-10T06:47:54;100247.44;;;-1.74;100.00
19108;BME280;9686;48.832;9.126;2023-02-10T06:50:20;100238.66;;;-1.77;100.00
19108;BME280;9686;48.832;9.126;2023-02-10T06:52:46;100246.44;;;-1.76;100.00
19108;BME280;9686;48.832;9.126;2023-02-10T06:55:12;100247.78;;;-1.69;100.00
19108;BME280;9686;48.832;9.126;2023-02-10T06:57:38;100254.91;;;-1.65;100.00
19108;BME280;9686;48.832;9.126;2023-02-10T07:00:07;100256.47;;;-1.67;100.00
19108;BME280;9686;48.832;9.126;2023-02-10T07:02:34;100260.72;;;-1.56;100.00
19108;BME280;9686;48.832;9.126;2023-02-10T07:05:00;100260.84;;;-1.54;100.00
19108;BME280;9686;48.832;9.126;2023-02-10T07:07:25;100258.56;;;-1.62;100.00
19108;BME280;9686;48.832;9.126;2023-02-10T07:09:51;100268.69;;;-1.63;100.00
19108;BME280;9686;48.832;9.126;2023-02-10T07:12:18;100262.34;;;-1.57;100.00
19108;BME280;9686;48.832;9.126;2023-02-10T07:14:43;100254.84;;;-1.43;100.00
19108;BME280;9686;48.832;9.126;2023-02-10T07:17:09;100254.84;;;-1.43;100.00
19108;BME280;9686;48.832;9.126;2023-02-10T07:19:35;100250.38;;;-1.34;100.00
19108;BME280;9686;48.832;9.126;2023-02-10T07:22:00;100255.97;;;-1.28;100.00
19108;BME280;9686;48.832;9.126;2023-02-10T07:24:30;100254.53;;;-1.25;100.00
19108;BME280;9686;48.832;9.126;2023-02-10T07:26:55;100264.88;;;-1.11;100.00
19108;BME280;9686;48.832;9.126;2023-02-10T07:29:21;100265.56;;;-1.02;100.00
19108;BME280;9686;48.832;9.126;2023-02-10T07:31:46;100270.69;;;-1.02;100.00
19108;BME280;9686;48.832;9.126;2023-02-10T07:34:11;100271.00;;;-0.98;100.00
19108;BME280;9686;48.832;9.126;2023-02-10T07:36:36;100268.22;;;-1.01;100.00
19108;BME280;9686;48.832;9.126;2023-02-10T07:39:02;100280.47;;;-0.97;100.00
19108;BME280;9686;48.832;9.126;2023-02-10T07:41:27;100274.66;;;-0.71;100.00
19108;BME280;9686;48.832;9.126;2023-02-10T07:43:53;100272.88;;;-0.72;100.00
19108;BME280;9686;48.832;9.126;2023-02-10T07:46:18;100271.19;;;-0.59;100.00
19108;BME280;9686;48.832;9.126;2023-02-10T07:48:43;100272.63;;;-0.51;100.00
19108;BME280;9686;48.832;9.126;2023-02-10T07:51:09;100271.03;;;-0.38;100.00
19108;BME280;9686;48.832;9.126;2023-02-10T07:53:34;100268.19;;;-0.29;100.00
19108;BME280;9686;48.832;9.126;2023-02-10T07:56:02;100262.97;;;-0.19;100.00
19108;BME280;9686;48.832;9.126;2023-02-10T07:58:28;100253.31;;;-0.10;100.00
19108;BME280;9686;48.832;9.126;2023-02-10T08:00:53;100249.38;;;0.07;100.00
19108;BME280;9686;48.832;9.126;2023-02-10T08:03:18;100259.06;;;0.24;100.00
19108;BME280;9686;48.832;9.126;2023-02-10T08:05:44;100263.16;;;0.34;100.00
19108;BME280;9686;48.832;9.126;2023-02-10T08:08:12;100255.19;;;0.43;100.00
19108;BME280;9686;48.832;9.126;2023-02-10T08:10:38;100257.69;;;0.54;100.00
19108;BME280;9686;48.832;9.126;2023-02-10T08:13:04;100251.88;;;0.57;100.00
19108;BME280;9686;48.832;9.126;2023-02-10T08:15:29;100258.88;;;0.59;100.00
19108;BME280;9686;48.832;9.126;2023-02-10T08:17:54;100261.28;;;0.83;100.00
19108;BME280;9686;48.832;9.126;2023-02-10T08:20:20;100265.22;;;0.91;100.00
19108;BME280;9686;48.832;9.126;2023-02-10T08:22:45;100257.03;;;0.97;100.00
19108;BME280;9686;48.832;9.126;2023-02-10T08:25:10;100258.91;;;0.99;100.00
19108;BME280;9686;48.832;9.126;2023-02-10T08:27:35;100271.06;;;1.15;100.00
19108;BME280;9686;48.832;9.126;2023-02-10T08:30:01;100267.38;;;1.24;100.00
19108;BME280;9686;48.832;9.126;2023-02-10T08:32:29;100267.91;;;1.32;100.00
19108;BME280;9686;48.832;9.126;2023-02-10T08:34:54;100265.63;;;1.37;100.00
19108;BME280;9686;48.832;9.126;2023-02-10T08:37:20;100267.16;;;1.48;100.00
19108;BME280;9686;48.832;9.126;2023-02-10T08:39:46;100276.13;;;1.68;100.00
19108;BME280;9686;48.832;9.126;2023-02-10T08:42:11;100276.94;;;1.67;100.00
19108;BME280;9686;48.832;9.126;2023-02-10T08:44:37;100268.09;;;1.76;100.00
19108;BME280;9686;48.832;9.126;2023-02-10T08:47:03;100267.91;;;2.01;100.00
19108;BME280;9686;48.832;9.126;2023-02-10T08:49:28;100261.56;;;2.09;100.00
19108;BME280;9686;48.832;9.126;2023-02-10T08:51:55;100266.91;;;2.27;100.00
19108;BME280;9686;48.832;9.126;2023-02-10T08:54:21;100265.19;;;2.56;99.61
19108;BME280;9686;48.832;9.126;2023-02-10T08:56:47;100267.34;;;2.63;97.78
19108;BME280;9686;48.832;9.126;2023-02-10T08:59:12;100265.28;;;2.72;97.94
19108;BME280;9686;48.832;9.126;2023-02-10T09:01:38;100262.09;;;2.76;97.29
19108;BME280;9686;48.832;9.126;2023-02-10T09:04:03;100259.59;;;2.77;98.14
19108;BME280;9686;48.832;9.126;2023-02-10T09:06:33;100255.88;;;2.87;96.53
19108;BME280;9686;48.832;9.126;2023-02-10T09:09:04;100264.84;;;2.94;98.88
19108;BME280;9686;48.832;9.126;2023-02-10T09:11:30;100264.38;;;3.16;92.63
19108;BME280;9686;48.832;9.126;2023-02-10T09:13:55;100261.97;;;3.19;93.61
19108;BME280;9686;48.832;9.126;2023-02-10T09:16:21;100267.03;;;3.17;93.58
19108;BME280;9686;48.832;9.126;2023-02-10T09:18:47;100270.69;;;3.37;91.39
19108;BME280;9686;48.832;9.126;2023-02-10T09:21:12;100267.84;;;3.47;90.79
19108;BME280;9686;48.832;9.126;2023-02-10T09:23:37;100265.91;;;3.43;93.57
19108;BME280;9686;48.832;9.126;2023-02-10T09:26:03;100271.72;;;3.55;91.28
19108;BME280;9686;48.832;9.126;2023-02-10T09:28:29;100276.69;;;3.67;90.13
19108;BME280;9686;48.832;9.126;2023-02-10T09:30:54;100268.47;;;3.74;86.97
19108;BME280;9686;48.832;9.126;2023-02-10T09:33:20;100277.03;;;4.06;84.04
19108;BME280;9686;48.832;9.126;2023-02-10T09:35:45;100261.34;;;4.17;82.82
19108;BME280;9686;48.832;9.126;2023-02-10T09:38:12;100259.84;;;4.39;79.51
19108;BME280;9686;48.832;9.126;2023-02-10T09:54:30;100256.25;;;4.69;76.27
19108;BME280;9686;48.832;9.126;2023-02-10T09:57:02;100251.63;;;4.80;73.23
19108;BME280;9686;48.832;9.126;2023-02-10T09:59:29;100250.31;;;5.06;74.36
19108;BME280;9686;48.832;9.126;2023-02-10T10:01:58;100252.09;;;5.24;71.15
19108;BME280;9686;48.832;9.126;2023-02-10T10:04:27;100249.25;;;5.38;69.91
19108;BME280;9686;48.832;9.126;2023-02-10T10:07:23;100251.50;;;5.48;69.10
19108;BME280;9686;48.832;9.126;2023-02-10T10:10:07;100244.28;;;5.60;69.73
19108;BME280;9686;48.832;9.126;2023-02-10T10:12:36;100262.66;;;5.84;67.38
19108;BME280;9686;48.832;9.126;2023-02-10T10:15:03;100259.38;;;5.88;66.08
19108;BME280;9686;48.832;9.126;2023-02-10T10:28:20;100252.81;;;6.33;61.59
19108;BME280;9686;48.832;9.126;2023-02-10T10:30:56;100249.00;;;6.25;63.19
19108;BME280;9686;48.832;9.126;2023-02-10T10:35:56;100265.16;;;6.39;61.55
19108;BME280;9686;48.832;9.126;2023-02-10T10:38:33;100259.69;;;6.52;58.98
19108;BME280;9686;48.832;9.126;2023-02-10T10:41:22;100258.69;;;6.69;57.25
19108;BME280;9686;48.832;9.126;2023-02-10T10:43:54;100264.44;;;6.62;57.44
19108;BME280;9686;48.832;9.126;2023-02-10T10:46:30;100254.06;;;6.62;59.96
19108;BME280;9686;48.832;9.126;2023-02-10T10:48:59;100250.44;;;6.78;56.09
19108;BME280;9686;48.832;9.126;2023-02-10T10:51:25;100248.53;;;6.95;57.98
19108;BME280;9686;48.832;9.126;2023-02-10T10:53:53;100253.69;;;6.95;56.20
19108;BME280;9686;48.832;9.126;2023-02-10T10:56:42;100242.09;;;7.06;54.63
19108;BME280;9686;48.832;9.126;2023-02-10T10:59:14;100232.91;;;7.14;51.09
19108;BME280;9686;48.832;9.126;2023-02-10T11:01:42;100224.59;;;7.45;52.08
19108;BME280;9686;48.832;9.126;2023-02-10T11:04:13;100230.22;;;7.56;50.67
19108;BME280;9686;48.832;9.126;2023-02-10T11:06:40;100236.56;;;7.41;50.34
19108;BME280;9686;48.832;9.126;2023-02-10T11:09:17;100239.06;;;7.61;49.31
19108;BME280;9686;48.832;9.126;2023-02-10T11:11:44;100227.97;;;7.65;47.72
19108;BME280;9686;48.832;9.126;2023-02-10T11:16:46;100233.63;;;7.32;48.11
19108;BME280;9686;48.832;9.126;2023-02-10T11:19:25;100235.47;;;8.03;48.52
19108;BME280;9686;48.832;9.126;2023-02-10T11:21:51;100239.84;;;8.28;47.95
19108;BME280;9686;48.832;9.126;2023-02-10T11:27:13;100239.28;;;8.36;46.42
19108;BME280;9686;48.832;9.126;2023-02-10T11:29:48;100229.56;;;8.31;45.63
19108;BME280;9686;48.832;9.126;2023-02-10T11:32:19;100236.00;;;8.41;46.69
19108;BME280;9686;48.832;9.126;2023-02-10T11:34:46;100239.22;;;8.34;46.14
19108;BME280;9686;48.832;9.126;2023-02-10T11:37:29;100236.53;;;7.62;45.79
19108;BME280;9686;48.832;9.126;2023-02-10T11:39:57;100218.84;;;7.98;46.84
19108;BME280;9686;48.832;9.126;2023-02-10T11:42:28;100233.59;;;7.99;45.91
19108;BME280;9686;48.832;9.126;2023-02-10T11:47:34;100225.47;;;8.37;47.37
19108;BME280;9686;48.832;9.126;2023-02-10T11:50:04;100224.00;;;8.45;46.65
19108;BME280;9686;48.832;9.126;2023-02-10T11:52:30;100223.22;;;8.47;46.81
19108;BME280;9686;48.832;9.126;2023-02-10T11:54:58;100227.44;;;8.69;45.63
19108;BME280;9686;48.832;9.126;2023-02-10T11:57:37;100222.25;;;8.69;45.30
19108;BME280;9686;48.832;9.126;2023-02-10T12:00:47;100217.13;;;9.81;44.56
19108;BME280;9686;48.832;9.126;2023-02-10T12:06:35;100200.25;;;11.31;42.20
19108;BME280;9686;48.832;9.126;2023-02-10T12:09:21;100197.06;;;11.82;41.08
19108;BME280;9686;48.832;9.126;2023-02-10T12:20:02;100189.34;;;13.33;36.73
19108;BME280;9686;48.832;9.126;2023-02-10T12:25:13;100190.09;;;13.89;36.62
19108;BME280;9686;48.832;9.126;2023-02-10T12:27:49;100189.75;;;13.63;36.13
19108;BME280;9686;48.832;9.126;2023-02-10T12:30:30;100191.78;;;12.71;36.89
19108;BME280;9686;48.832;9.126;2023-02-10T12:41:46;100172.03;;;11.54;40.13
19108;BME280;9686;48.832;9.126;2023-02-10T12:44:38;100174.25;;;11.37;38.47
19108;BME280;9686;48.832;9.126;2023-02-10T12:47:25;100170.91;;;10.69;40.94
19108;BME280;9686;48.832;9.126;2023-02-10T12:52:49;100165.66;;;9.43;43.14
19108;BME280;9686;48.832;9.126;2023-02-10T12:55:22;100173.72;;;9.82;43.10
19108;BME280;9686;48.832;9.126;2023-02-10T12:57:52;100167.50;;;10.07;42.90
19108;BME280;9686;48.832;9.126;2023-02-10T13:00:24;100160.59;;;10.09;43.37
19108;BME280;9686;48.832;9.126;2023-02-10T13:03:00;100163.50;;;10.19;43.73
19108;BME280;9686;48.832;9.126;2023-02-10T13:05:32;100159.38;;;9.96;42.81
19108;BME280;9686;48.832;9.126;2023-02-10T13:08:01;100160.09;;;9.91;44.19
19108;BME280;9686;48.832;9.126;2023-02-10T13:10:35;100160.13;;;10.22;44.01
19108;BME280;9686;48.832;9.126;2023-02-10T13:13:06;100157.69;;;10.63;43.41
19108;BME280;9686;48.832;9.126;2023-02-10T13:15:41;100162.66;;;10.52;42.11
19108;BME280;9686;48.832;9.126;2023-02-10T13:18:22;100165.53;;;10.30;41.75
19108;BME280;9686;48.832;9.126;2023-02-10T13:21:08;100163.69;;;10.26;42.10
19108;BME280;9686;48.832;9.126;2023-02-10T13:26:41;100160.78;;;10.15;43.05
19108;BME280;9686;48.832;9.126;2023-02-10T13:34:44;100160.34;;;9.40;42.90
19108;BME280;9686;48.832;9.126;2023-02-10T13:37:26;100160.50;;;9.44;43.23
19108;BME280;9686;48.832;9.126;2023-02-10T13:39:58;100169.94;;;9.71;43.22
19108;BME280;9686;48.832;9.126;2023-02-10T13:42:37;100170.38;;;9.86;43.33
19108;BME280;9686;48.832;9.126;2023-02-10T13:52:56;100169.50;;;9.55;43.54
19108;BME280;9686;48.832;9.126;2023-02-10T13:55:46;100164.91;;;9.47;44.67
19108;BME280;9686;48.832;9.126;2023-02-10T14:00:52;100167.69;;;9.53;44.22
19108;BME280;9686;48.832;9.126;2023-02-10T14:03:27;100165.22;;;9.57;42.86
19108;BME280;9686;48.832;9.126;2023-02-10T14:06:03;100173.56;;;9.76;41.85
19108;BME280;9686;48.832;9.126;2023-02-10T14:13:56;100160.25;;;9.65;40.53
19108;BME280;9686;48.832;9.126;2023-02-10T14:19:00;100173.03;;;9.29;41.83
19108;BME280;9686;48.832;9.126;2023-02-10T14:21:38;100167.22;;;9.66;41.54
19108;BME280;9686;48.832;9.126;2023-02-10T14:24:09;100169.44;;;9.84;41.27
19108;BME280;9686;48.832;9.126;2023-02-10T14:26:42;100165.50;;;9.67;41.32
19108;BME280;9686;48.832;9.126;2023-02-10T14:29:13;100164.38;;;9.58;42.61
19108;BME280;9686;48.832;9.126;2023-02-10T14:31:40;100168.31;;;9.74;42.06
19108;BME280;9686;48.832;9.126;2023-02-10T14:34:21;100166.00;;;9.55;42.27
19108;BME280;9686;48.832;9.126;2023-02-10T14:39:22;100159.13;;;9.28;42.64
19108;BME280;9686;48.832;9.126;2023-02-10T14:41:48;100157.41;;;9.57;44.03
19108;BME280;9686;48.832;9.126;2023-02-10T14:44:33;100158.78;;;9.45;43.47
19108;BME280;9686;48.832;9.126;2023-02-10T14:46:59;100159.88;;;9.53;43.24
19108;BME280;9686;48.832;9.126;2023-02-10T14:49:25;100154.44;;;9.45;43.53
19108;BME280;9686;48.832;9.126;2023-02-10T14:51:51;100160.78;;;9.85;43.10
19108;BME280;9686;48.832;9.126;2023-02-10T14:54:22;100163.44;;;9.86;43.20